sensor_id;sensor_type;location;lat;lon;timestamp;temperature;humidity
17529;DHT22;8882;53.192;8.184;2024-03-17T05:19:12;2.30;99.90
17529;DHT22;8882;53.192;8.184;2024-03-17T05:21:37;2.20;99.90
17529;DHT22;8882;53.192;8.184;2024-03-17T05:24:03;2.20;99.90
17529;DHT22;8882;53.192;8.184;2024-03-17T05:26:29;2.10;99.90
17529;DHT22;8882;53.192;8.184;2024-03-17T05:28:56;2.20;99.90
17529;DHT22;8882;53.192;8.184;2024-03-17T05:31:22;2.10;99.90
17529;DHT22;8882;53.192;8.184;2024-03-17T05:33:48;2.10;99.90
17529;DHT22;8882;53.192;8.184;2024-03-17T05:36:14;2.10;99.90
17529;DHT22;8882;53.192;8.184;2024-03-17T05:38:39;2.10;99.90
17529;DHT22;8882;53.192;8.184;2024-03-17T05:41:06;2.10;99.90
17529;DHT22;8882;53.192;8.184;2024-03-17T05:43:37;2.10;99.90
17529;DHT22;8882;53.192;8.184;2024-03-17T05:46:06;2.00;99.90
17529;DHT22;8882;53.192;8.184;2024-03-17T05:48:36;2.00;99.90
17529;DHT22;8882;53.192;8.184;2024-03-17T05:51:11;2.00;99.90
17529;DHT22;8882;53.192;8.184;2024-03-17T05:53:39;2.00;99.90
17529;DHT22;8882;53.192;8.184;2024-03-17T05:56:11;2.00;99.90
17529;DHT22;8882;53.192;8.184;2024-03-17T05:58:38;2.00;99.90
17529;DHT22;8882;53.192;8.184;2024-03-17T06:01:05;2.00;99.90
17529;DHT22;8882;53.192;8.184;2024-03-17T06:03:33;2.00;99.90
17529;DHT22;8882;53.192;8.184;2024-03-17T06:06:01;2.00;99.90
17529;DHT22;8882;53.192;8.184;2024-03-17T06:08:27;2.00;99.90
17529;DHT22;8882;53.192;8.184;2024-03-17T06:10:53;2.00;99.90
17529;DHT22;8882;53.192;8.184;2024-03-17T06:13:18;2.00;99.90
17529;DHT22;8882;53.192;8.184;2024-03-17T06:15:44;2.10;99.90
17529;DHT22;8882;53.192;8.184;2024-03-17T06:18:14;2.10;99.90
17529;DHT22;8882;53.192;8.184;2024-03-17T06:20:41;2.10;99.90
17529;DHT22;8882;53.192;8.184;2024-03-17T06:23:14;2.10;99.90
17529;DHT22;8882;53.192;8.184;2024-03-17T06:28:06;2.20;99.90
17529;DHT22;8882;53.192;8.184;2024-03-17T06:30:31;2.30;99.90
17529;DHT22;8882;53.192;8.184;2024-03-17T06:32:59;2.30;99.90
17529;DHT22;8882;53.192;8.184;2024-03-17T06:35:27;2.40;99.90
17529;DHT22;8882;53.192;8.184;2024-03-17T06:37:52;2.50;99.90
17529;DHT22;8882;53.192;8.184;2024-03-17T06:40:18;2.60;99.90
17529;DHT22;8882;53.192;8.184;2024-03-17T06:42:44;2.80;99.90
17529;DHT22;8882;53.192;8.184;2024-03-17T06:45:09;3.00;99.90
17529;DHT22;8882;53.192;8.184;2024-03-17T06:47:38;3.10;99.90
17529;DHT22;8882;53.192;8.184;2024-03-17T06:50:05;3.20;99.90
17529;DHT22;8882;53.192;8.184;2024-03-17T06:52:32;3.40;99.90
17529;DHT22;8882;53.192;8.184;2024-03-17T06:54:58;3.50;99.90
17529;DHT22;8882;53.192;8.184;2024-03-17T06:57:24;3.70;99.90
17529;DHT22;8882;53.192;8.184;2024-03-17T06:59:49;3.80;99.90
17529;DHT22;8882;53.192;8.184;2024-03-17T07:02:16;3.90;99.90
17529;DHT22;8882;53.192;8.184;2024-03-17T07:04:43;4.00;99.90
17529;DHT22;8882;53.192;8.184;2024-03-17T07:07:09;4.10;99.90
17529;DHT22;8882;53.192;8.184;2024-03-17T07:09:35;4.10;99.90
17529;DHT22;8882;53.192;8.184;2024-03-17T07:12:00;4.20;99.90
17529;DHT22;8882;53.192;8.184;2024-03-17T07:14:26;4.30;99.90
17529;DHT22;8882;53.192;8.184;2024-03-17T07:16:52;4.40;99.90
17529;DHT22;8882;53.192;8.184;2024-03-17T07:19:18;4.50;99.90
17529;DHT22;8882;53.192;8.184;2024-03-17T07:21:44;4.60;99.90
17529;DHT22;8882;53.192;8.184;2024-03-17T07:24:09;4.70;99.90
17529;DHT22;8882;53.192;8.184;2024-03-17T07:26:35;4.70;99.90
17529;DHT22;8882;53.192;8.184;2024-03-17T07:29:00;4.70;99.90
17529;DHT22;8882;53.192;8.184;2024-03-17T07:31:26;4.90;99.90
17529;DHT22;8882;53.192;8.184;2024-03-17T07:33:51;5.10;99.90
17529;DHT22;8882;53.192;8.184;2024-03-17T07:36:17;5.20;99.90
17529;DHT22;8882;53.192;8.184;2024-03-17T07:38:42;5.30;99.90
17529;DHT22;8882;53.192;8.184;2024-03-17T07:41:08;5.40;99.90
17529;DHT22;8882;53.192;8.184;2024-03-17T07:43:38;5.60;99.90
17529;DHT22;8882;53.192;8.184;2024-03-17T07:48:33;5.70;99.90
17529;DHT22;8882;53.192;8.184;2024-03-17T07:51:04;5.80;99.90
17529;DHT22;8882;53.192;8.184;2024-03-17T07:53:34;5.90;99.90
17529;DHT22;8882;53.192;8.184;2024-03-17T07:56:09;6.00;99.90
17529;DHT22;8882;53.192;8.184;2024-03-17T07:58:36;6.10;99.90
17529;DHT22;8882;53.192;8.184;2024-03-17T08:01:04;6.30;99.90
17529;DHT22;8882;53.192;8.184;2024-03-17T08:03:31;6.30;99.90
17529;DHT22;8882;53.192;8.184;2024-03-17T08:05:58;6.40;99.90
17529;DHT22;8882;53.192;8.184;2024-03-17T08:08:24;6.40;99.90
17529;DHT22;8882;53.192;8.184;2024-03-17T08:10:50;6.50;99.90
17529;DHT22;8882;53.192;8.184;2024-03-17T08:13:17;6.70;99.90
17529;DHT22;8882;53.192;8.184;2024-03-17T08:15:43;6.80;99.90
17529;DHT22;8882;53.192;8.184;2024-03-17T08:18:09;6.90;99.90
17529;DHT22;8882;53.192;8.184;2024-03-17T08:20:42;7.00;99.90
17529;DHT22;8882;53.192;8.184;2024-03-17T08:23:09;7.00;99.90
17529;DHT22;8882;53.192;8.184;2024-03-17T08:25:36;7.10;99.90
17529;DHT22;8882;53.192;8.184;2024-03-17T08:28:02;7.20;99.90
17529;DHT22;8882;53.192;8.184;2024-03-17T08:30:28;7.30;99.90
17529;DHT22;8882;53.192;8.184;2024-03-17T08:32:54;7.40;99.90
17529;DHT22;8882;53.192;8.184;2024-03-17T08:35:19;7.50;99.90
17529;DHT22;8882;53.192;8.184;2024-03-17T08:37:45;7.60;99.90
17529;DHT22;8882;53.192;8.184;2024-03-17T08:40:11;8.00;99.90
17529;DHT22;8882;53.192;8.184;2024-03-17T08:42:37;8.00;99.90
17529;DHT22;8882;53.192;8.184;2024-03-17T08:45:03;8.00;99.90
17529;DHT22;8882;53.192;8.184;2024-03-17T08:47:29;8.00;99.90
17529;DHT22;8882;53.192;8.184;2024-03-17T08:49:54;8.00;99.90
17529;DHT22;8882;53.192;8.184;2024-03-17T08:52:20;7.90;99.90
17529;DHT22;8882;53.192;8.184;2024-03-17T08:54:49;8.00;99.90
17529;DHT22;8882;53.192;8.184;2024-03-17T08:57:17;8.10;99.90
17529;DHT22;8882;53.192;8.184;2024-03-17T08:59:42;8.20;99.90
17529;DHT22;8882;53.192;8.184;2024-03-17T09:02:13;8.30;99.90
17529;DHT22;8882;53.192;8.184;2024-03-17T09:04:43;8.40;99.90
17529;DHT22;8882;53.192;8.184;2024-03-17T09:07:08;8.50;99.90
17529;DHT22;8882;53.192;8.184;2024-03-17T09:09:34;8.60;99.90
17529;DHT22;8882;53.192;8.184;2024-03-17T09:11:59;8.70;99.90
17529;DHT22;8882;53.192;8.184;2024-03-17T09:14:25;8.90;99.90
17529;DHT22;8882;53.192;8.184;2024-03-17T09:16:51;8.80;99.90
17529;DHT22;8882;53.192;8.184;2024-03-17T09:19:16;8.90;99.90
17529;DHT22;8882;53.192;8.184;2024-03-17T09:21:42;8.90;99.90
17529;DHT22;8882;53.192;8.184;2024-03-17T09:24:08;9.00;99.90
17529;DHT22;8882;53.192;8.184;2024-03-17T09:26:34;9.00;99.90
17529;DHT22;8882;53.192;8.184;2024-03-17T09:29:01;8.90;99.90
17529;DHT22;8882;53.192;8.184;2024-03-17T09:31:27;8.90;99.90
17529;DHT22;8882;53.192;8.184;2024-03-17T09:33:53;9.00;99.90
17529;DHT22;8882;53.192;8.184;2024-03-17T09:36:18;9.30;99.90
17529;DHT22;8882;53.192;8.184;2024-03-17T09:38:44;9.40;99.90
17529;DHT22;8882;53.192;8.184;2024-03-17T09:41:31;9.60;99.90
17529;DHT22;8882;53.192;8.184;2024-03-17T09:43:57;9.90;99.90
17529;DHT22;8882;53.192;8.184;2024-03-17T09:46:24;9.90;99.90
17529;DHT22;8882;53.192;8.184;2024-03-17T09:48:51;9.70;99.90
17529;DHT22;8882;53.192;8.184;2024-03-17T09:51:22;9.60;99.90
17529;DHT22;8882;53.192;8.184;2024-03-17T09:53:48;9.60;99.90
17529;DHT22;8882;53.192;8.184;2024-03-17T09:56:15;9.40;99.90
17529;DHT22;8882;53.192;8.184;2024-03-17T09:58:42;9.50;99.90
17529;DHT22;8882;53.192;8.184;2024-03-17T10:01:08;9.60;99.90
17529;DHT22;8882;53.192;8.184;2024-03-17T10:03:53;9.80;99.90
17529;DHT22;8882;53.192;8.184;2024-03-17T10:06:23;9.80;99.90
17529;DHT22;8882;53.192;8.184;2024-03-17T10:08:56;9.90;99.90
17529;DHT22;8882;53.192;8.184;2024-03-17T10:11:23;10.00;99.90
17529;DHT22;8882;53.192;8.184;2024-03-17T10:14:05;10.00;99.90
17529;DHT22;8882;53.192;8.184;2024-03-17T10:16:32;10.20;99.90
17529;DHT22;8882;53.192;8.184;2024-03-17T10:21:46;10.30;99.90
17529;DHT22;8882;53.192;8.184;2024-03-17T10:24:25;10.40;99.90
17529;DHT22;8882;53.192;8.184;2024-03-17T10:26:53;10.20;99.90
17529;DHT22;8882;53.192;8.184;2024-03-17T10:29:24;10.10;99.90
17529;DHT22;8882;53.192;8.184;2024-03-17T10:31:51;10.10;99.90
17529;DHT22;8882;53.192;8.184;2024-03-17T10:34:17;10.10;99.90
17529;DHT22;8882;53.192;8.184;2024-03-17T10:36:44;10.20;99.90
17529;DHT22;8882;53.192;8.184;2024-03-17T10:39:26;10.20;99.90
17529;DHT22;8882;53.192;8.184;2024-03-17T10:42:01;10.30;99.90
17529;DHT22;8882;53.192;8.184;2024-03-17T10:44:36;10.60;99.90
17529;DHT22;8882;53.192;8.184;2024-03-17T10:47:03;10.60;99.90
17529;DHT22;8882;53.192;8.184;2024-03-17T10:49:35;10.60;99.90
17529;DHT22;8882;53.192;8.184;2024-03-17T10:52:03;10.60;99.90
17529;DHT22;8882;53.192;8.184;2024-03-17T10:54:30;10.70;99.90
17529;DHT22;8882;53.192;8.184;2024-03-17T10:56:57;10.60;99.90
17529;DHT22;8882;53.192;8.184;2024-03-17T10:59:53;10.60;99.90
17529;DHT22;8882;53.192;8.184;2024-03-17T11:02:23;10.60;99.90
17529;DHT22;8882;53.192;8.184;2024-03-17T11:05:00;10.50;99.90
17529;DHT22;8882;53.192;8.184;2024-03-17T11:07:27;10.50;99.90
17529;DHT22;8882;53.192;8.184;2024-03-17T11:09:55;10.40;99.90
17529;DHT22;8882;53.192;8.184;2024-03-17T11:12:43;10.50;99.90
17529;DHT22;8882;53.192;8.184;2024-03-17T11:15:35;10.50;99.90
17529;DHT22;8882;53.192;8.184;2024-03-17T11:20:34;10.70;99.90
17529;DHT22;8882;53.192;8.184;2024-03-17T11:23:01;10.60;99.90
17529;DHT22;8882;53.192;8.184;2024-03-17T11:28:08;10.60;99.90
17529;DHT22;8882;53.192;8.184;2024-03-17T11:38:58;10.70;99.90
17529;DHT22;8882;53.192;8.184;2024-03-17T11:41:42;10.60;99.90
17529;DHT22;8882;53.192;8.184;2024-03-17T11:46:57;10.40;99.90
17529;DHT22;8882;53.192;8.184;2024-03-17T11:49:26;10.50;99.90
17529;DHT22;8882;53.192;8.184;2024-03-17T11:51:54;10.50;99.90
17529;DHT22;8882;53.192;8.184;2024-03-17T11:54:23;10.50;99.90
17529;DHT22;8882;53.192;8.184;2024-03-17T11:56:50;10.50;99.90
17529;DHT22;8882;53.192;8.184;2024-03-17T11:59:17;10.50;99.90
17529;DHT22;8882;53.192;8.184;2024-03-17T12:01:46;10.60;99.90
17529;DHT22;8882;53.192;8.184;2024-03-17T12:04:13;10.70;99.90
17529;DHT22;8882;53.192;8.184;2024-03-17T12:06:39;10.70;99.90
17529;DHT22;8882;53.192;8.184;2024-03-17T12:09:25;10.80;99.90
17529;DHT22;8882;53.192;8.184;2024-03-17T12:12:02;10.80;99.90
17529;DHT22;8882;53.192;8.184;2024-03-17T12:14:28;10.90;99.90
17529;DHT22;8882;53.192;8.184;2024-03-17T12:17:01;10.90;99.90
17529;DHT22;8882;53.192;8.184;2024-03-17T12:19:28;11.00;99.90
17529;DHT22;8882;53.192;8.184;2024-03-17T12:21:58;11.00;99.90
17529;DHT22;8882;53.192;8.184;2024-03-17T12:24:26;10.90;99.90
17529;DHT22;8882;53.192;8.184;2024-03-17T12:26:53;10.90;99.90
17529;DHT22;8882;53.192;8.184;2024-03-17T12:29:41;10.90;99.90
17529;DHT22;8882;53.192;8.184;2024-03-17T12:34:37;10.90;99.90
17529;DHT22;8882;53.192;8.184;2024-03-17T12:37:03;10.90;99.90
17529;DHT22;8882;53.192;8.184;2024-03-17T12:39:33;10.90;99.90
17529;DHT22;8882;53.192;8.184;2024-03-17T12:44:48;11.00;99.90
17529;DHT22;8882;53.192;8.184;2024-03-17T12:47:18;11.00;99.90
17529;DHT22;8882;53.192;8.184;2024-03-17T12:49:46;11.00;99.90
17529;DHT22;8882;53.192;8.184;2024-03-17T12:52:31;11.00;99.90
17529;DHT22;8882;53.192;8.184;2024-03-17T12:55:04;11.00;99.90
17529;DHT22;8882;53.192;8.184;2024-03-17T12:57:54;11.10;99.90
17529;DHT22;8882;53.192;8.184;2024-03-17T13:01:03;11.00;99.90
17529;DHT22;8882;53.192;8.184;2024-03-17T13:03:33;11.10;99.90
17529;DHT22;8882;53.192;8.184;2024-03-17T13:06:00;11.10;99.90
17529;DHT22;8882;53.192;8.184;2024-03-17T13:08:27;11.00;99.90
17529;DHT22;8882;53.192;8.184;2024-03-17T13:10:53;11.00;99.90
17529;DHT22;8882;53.192;8.184;2024-03-17T13:13:19;11.00;99.90
17529;DHT22;8882;53.192;8.184;2024-03-17T13:15:45;11.00;99.90
17529;DHT22;8882;53.192;8.184;2024-03-17T13:18:16;11.20;99.90
17529;DHT22;8882;53.192;8.184;2024-03-17T13:20:44;11.10;99.90
17529;DHT22;8882;53.192;8.184;2024-03-17T13:23:10;11.20;99.90
17529;DHT22;8882;53.192;8.184;2024-03-17T13:25:36;11.30;99.90
17529;DHT22;8882;53.192;8.184;2024-03-17T13:28:02;11.30;99.90
17529;DHT22;8882;53.192;8.184;2024-03-17T13:30:29;11.30;99.90
17529;DHT22;8882;53.192;8.184;2024-03-17T13:32:55;11.20;99.90
17529;DHT22;8882;53.192;8.184;2024-03-17T13:35:28;11.20;99.90
17529;DHT22;8882;53.192;8.184;2024-03-17T13:37:55;11.30;99.90
17529;DHT22;8882;53.192;8.184;2024-03-17T13:40:22;11.40;99.90
17529;DHT22;8882;53.192;8.184;2024-03-17T13:42:49;11.40;99.90
17529;DHT22;8882;53.192;8.184;2024-03-17T13:45:16;11.30;99.90
17529;DHT22;8882;53.192;8.184;2024-03-17T13:47:46;11.30;99.90
17529;DHT22;8882;53.192;8.184;2024-03-17T13:50:12;11.30;99.90
17529;DHT22;8882;53.192;8.184;2024-03-17T13:52:42;11.30;99.90
17529;DHT22;8882;53.192;8.184;2024-03-17T13:55:24;11.30;99.90
17529;DHT22;8882;53.192;8.184;2024-03-17T13:57:54;11.30;99.90
17529;DHT22;8882;53.192;8.184;2024-03-17T14:00:24;11.30;99.90
17529;DHT22;8882;53.192;8.184;2024-03-17T14:02:51;11.20;99.90
17529;DHT22;8882;53.192;8.184;2024-03-17T14:05:22;11.20;99.90
17529;DHT22;8882;53.192;8.184;2024-03-17T14:07:48;11.10;99.90
17529;DHT22;8882;53.192;8.184;2024-03-17T14:10:17;11.10;99.90
17529;DHT22;8882;53.192;8.184;2024-03-17T14:12:43;11.10;99.90
17529;DHT22;8882;53.192;8.184;2024-03-17T14:15:11;11.10;99.90
17529;DHT22;8882;53.192;8.184;2024-03-17T14:17:46;11.00;99.90
17529;DHT22;8882;53.192;8.184;2024-03-17T14:20:13;11.00;99.90
17529;DHT22;8882;53.192;8.184;2024-03-17T14:22:41;11.00;99.90
17529;DHT22;8882;53.192;8.184;2024-03-17T14:25:12;11.00;99.90
17529;DHT22;8882;53.192;8.184;2024-03-17T14:27:39;11.00;99.90
17529;DHT22;8882;53.192;8.184;2024-03-17T14:30:05;11.00;99.90
17529;DHT22;8882;53.192;8.184;2024-03-17T14:32:31;11.10;99.90
17529;DHT22;8882;53.192;8.184;2024-03-17T14:34:57;11.10;99.90
17529;DHT22;8882;53.192;8.184;2024-03-17T14:37:22;11.10;99.90
17529;DHT22;8882;53.192;8.184;2024-03-17T14:39:51;11.10;99.90
17529;DHT22;8882;53.192;8.184;2024-03-17T14:42:18;11.20;99.90
17529;DHT22;8882;53.192;8.184;2024-03-17T14:44:45;11.20;99.90
17529;DHT22;8882;53.192;8.184;2024-03-17T14:47:10;11.20;99.90
17529;DHT22;8882;53.192;8.184;2024-03-17T14:49:36;11.10;99.90
17529;DHT22;8882;53.192;8.184;2024-03-17T14:52:01;11.00;99.90
17529;DHT22;8882;53.192;8.184;2024-03-17T14:54:27;11.00;99.90
17529;DHT22;8882;53.192;8.184;2024-03-17T14:56:52;11.00;99.90
17529;DHT22;8882;53.192;8.184;2024-03-17T14:59:21;11.00;99.90
17529;DHT22;8882;53.192;8.184;2024-03-17T15:01:46;11.00;99.90
17529;DHT22;8882;53.192;8.184;2024-03-17T15:04:13;10.80;99.90
17529;DHT22;8882;53.192;8.184;2024-03-17T15:06:38;10.80;99.90
17529;DHT22;8882;53.192;8.184;2024-03-17T15:09:04;10.90;99.90
17529;DHT22;8882;53.192;8.184;2024-03-17T15:11:31;10.80;99.90
17529;DHT22;8882;53.192;8.184;2024-03-17T15:13:56;10.80;99.90
17529;DHT22;8882;53.192;8.184;2024-03-17T15:16:22;10.90;99.90
17529;DHT22;8882;53.192;8.184;2024-03-17T15:18:48;10.90;99.90
17529;DHT22;8882;53.192;8.184;2024-03-17T15:21:14;11.00;99.90
17529;DHT22;8882;53.192;8.184;2024-03-17T15:23:40;11.00;99.90
17529;DHT22;8882;53.192;8.184;2024-03-17T15:26:07;11.00;99.90
17529;DHT22;8882;53.192;8.184;2024-03-17T15:28:39;10.80;99.90
17529;DHT22;8882;53.192;8.184;2024-03-17T15:31:06;10.80;99.90
17529;DHT22;8882;53.192;8.184;2024-03-17T15:33:35;10.80;99.90
17529;DHT22;8882;53.192;8.184;2024-03-17T15:36:03;10.70;99.90
17529;DHT22;8882;53.192;8.184;2024-03-17T15:38:30;10.80;99.90
17529;DHT22;8882;53.192;8.184;2024-03-17T15:40:57;10.80;99.90
17529;DHT22;8882;53.192;8.184;2024-03-17T15:43:22;10.80;99.90
17529;DHT22;8882;53.192;8.184;2024-03-17T15:45:48;10.80;99.90
17529;DHT22;8882;53.192;8.184;2024-03-17T15:48:13;10.70;99.90
17529;DHT22;8882;53.192;8.184;2024-03-17T15:50:39;10.70;99.90
17529;DHT22;8882;53.192;8.184;2024-03-17T15:53:05;10.70;99.90
17529;DHT22;8882;53.192;8.184;2024-03-17T15:55:30;10.60;99.90
17529;DHT22;8882;53.192;8.184;2024-03-17T15:57:57;10.60;99.90
17529;DHT22;8882;53.192;8.184;2024-03-17T16:00:22;10.60;99.90
17529;DHT22;8882;53.192;8.184;2024-03-17T16:02:48;10.60;99.90
17529;DHT22;8882;53.192;8.184;2024-03-17T16:05:15;10.60;99.90
17529;DHT22;8882;53.192;8.184;2024-03-17T16:07:41;10.50;99.90
17529;DHT22;8882;53.192;8.184;2024-03-17T16:10:08;10.50;99.90
17529;DHT22;8882;53.192;8.184;2024-03-17T16:12:36;10.40;99.90
17529;DHT22;8882;53.192;8.184;2024-03-17T16:15:02;10.40;99.90
17529;DHT22;8882;53.192;8.184;2024-03-17T16:17:30;10.40;99.90
17529;DHT22;8882;53.192;8.184;2024-03-17T16:19:57;10.40;99.90
17529;DHT22;8882;53.192;8.184;2024-03-17T16:22:24;10.40;99.90
17529;DHT22;8882;53.192;8.184;2024-03-17T16:24:50;10.30;99.90
17529;DHT22;8882;53.192;8.184;2024-03-17T16:27:16;10.30;99.90
17529;DHT22;8882;53.192;8.184;2024-03-17T16:29:41;10.20;99.90
17529;DHT22;8882;53.192;8.184;2024-03-17T16:32:09;10.20;99.90
17529;DHT22;8882;53.192;8.184;2024-03-17T16:34:36;10.20;99.90
17529;DHT22;8882;53.192;8.184;2024-03-17T16:37:01;10.20;99.90
17529;DHT22;8882;53.192;8.184;2024-03-17T16:39:27;10.20;99.90
17529;DHT22;8882;53.192;8.184;2024-03-17T16:41:56;10.10;99.90
17529;DHT22;8882;53.192;8.184;2024-03-17T16:44:43;10.10;99.90
17529;DHT22;8882;53.192;8.184;2024-03-17T16:49:40;10.00;99.90
17529;DHT22;8882;53.192;8.184;2024-03-17T16:52:06;10.00;99.90
17529;DHT22;8882;53.192;8.184;2024-03-17T16:54:32;10.00;99.90
17529;DHT22;8882;53.192;8.184;2024-03-17T16:57:03;10.00;99.90
17529;DHT22;8882;53.192;8.184;2024-03-17T16:59:29;9.90;99.90
17529;DHT22;8882;53.192;8.184;2024-03-17T17:01:54;9.90;99.90
17529;DHT22;8882;53.192;8.184;2024-03-17T17:04:19;9.90;99.90
17529;DHT22;8882;53.192;8.184;2024-03-17T17:06:50;9.80;99.90
17529;DHT22;8882;53.192;8.184;2024-03-17T17:09:15;9.80;99.90
17529;DHT22;8882;53.192;8.184;2024-03-17T17:11:41;9.80;99.90
17529;DHT22;8882;53.192;8.184;2024-03-17T17:14:09;9.80;99.90
17529;DHT22;8882;53.192;8.184;2024-03-17T17:16:35;9.70;99.90
17529;DHT22;8882;53.192;8.184;2024-03-17T17:19:05;9.70;99.90
17529;DHT22;8882;53.192;8.184;2024-03-17T17:21:31;9.90;99.90
17529;DHT22;8882;53.192;8.184;2024-03-17T17:23:57;9.80;99.90
17529;DHT22;8882;53.192;8.184;2024-03-17T17:26:24;9.70;99.90
17529;DHT22;8882;53.192;8.184;2024-03-17T17:28:57;9.70;99.90
17529;DHT22;8882;53.192;8.184;2024-03-17T17:31:24;9.60;99.90
17529;DHT22;8882;53.192;8.184;2024-03-17T17:33:51;9.60;99.90
17529;DHT22;8882;53.192;8.184;2024-03-17T17:36:16;9.60;99.90
17529;DHT22;8882;53.192;8.184;2024-03-17T17:38:42;9.50;99.90
17529;DHT22;8882;53.192;8.184;2024-03-17T17:41:08;9.50;99.90
17529;DHT22;8882;53.192;8.184;2024-03-17T17:43:49;9.40;99.90
17529;DHT22;8882;53.192;8.184;2024-03-17T17:46:17;9.40;99.90
17529;DHT22;8882;53.192;8.184;2024-03-17T17:48:43;9.40;99.90
17529;DHT22;8882;53.192;8.184;2024-03-17T17:51:14;9.40;99.90
17529;DHT22;8882;53.192;8.184;2024-03-17T17:53:41;9.30;99.90
17529;DHT22;8882;53.192;8.184;2024-03-17T17:56:07;9.30;99.90
17529;DHT22;8882;53.192;8.184;2024-03-17T17:58:37;9.30;99.90
17529;DHT22;8882;53.192;8.184;2024-03-17T18:01:06;9.20;99.90
17529;DHT22;8882;53.192;8.184;2024-03-17T18:03:32;9.20;99.90
17529;DHT22;8882;53.192;8.184;2024-03-17T18:05:58;9.20;99.90
17529;DHT22;8882;53.192;8.184;2024-03-17T18:08:25;9.20;99.90
17529;DHT22;8882;53.192;8.184;2024-03-17T18:10:52;9.20;99.90
17529;DHT22;8882;53.192;8.184;2024-03-17T18:13:18;9.20;99.90
17529;DHT22;8882;53.192;8.184;2024-03-17T18:15:44;9.20;99.90
17529;DHT22;8882;53.192;8.184;2024-03-17T18:18:13;9.20;99.90
17529;DHT22;8882;53.192;8.184;2024-03-17T18:20:38;9.20;99.90
17529;DHT22;8882;53.192;8.184;2024-03-17T18:23:04;9.20;99.90
17529;DHT22;8882;53.192;8.184;2024-03-17T18:25:30;9.10;99.90
17529;DHT22;8882;53.192;8.184;2024-03-17T18:28:01;9.10;99.90
17529;DHT22;8882;53.192;8.184;2024-03-17T18:30:28;9.10;99.90
17529;DHT22;8882;53.192;8.184;2024-03-17T18:32:55;9.10;99.90
17529;DHT22;8882;53.192;8.184;2024-03-17T18:35:25;9.10;99.90
17529;DHT22;8882;53.192;8.184;2024-03-17T18:37:51;9.10;99.90
17529;DHT22;8882;53.192;8.184;2024-03-17T18:40:17;9.10;99.90
17529;DHT22;8882;53.192;8.184;2024-03-17T18:42:46;9.10;99.90
17529;DHT22;8882;53.192;8.184;2024-03-17T18:45:21;9.10;99.90
17529;DHT22;8882;53.192;8.184;2024-03-17T18:47:47;9.10;99.90
17529;DHT22;8882;53.192;8.184;2024-03-17T18:50:15;9.10;99.90
17529;DHT22;8882;53.192;8.184;2024-03-17T18:52:41;9.10;99.90
17529;DHT22;8882;53.192;8.184;2024-03-17T18:55:09;9.10;99.90
17529;DHT22;8882;53.192;8.184;2024-03-17T18:57:35;9.00;99.90
17529;DHT22;8882;53.192;8.184;2024-03-17T19:00:03;9.10;99.90
17529;DHT22;8882;53.192;8.184;2024-03-17T19:02:29;9.00;99.90
17529;DHT22;8882;53.192;8.184;2024-03-17T19:04:58;9.00;99.90
17529;DHT22;8882;53.192;8.184;2024-03-17T19:07:24;9.00;99.90
17529;DHT22;8882;53.192;8.184;2024-03-17T19:09:54;9.00;99.90
17529;DHT22;8882;53.192;8.184;2024-03-17T19:12:21;9.00;99.90
17529;DHT22;8882;53.192;8.184;2024-03-17T19:14:49;9.10;99.90
17529;DHT22;8882;53.192;8.184;2024-03-17T19:17:15;9.00;99.90
17529;DHT22;8882;53.192;8.184;2024-03-17T19:19:40;9.00;99.90
17529;DHT22;8882;53.192;8.184;2024-03-17T19:22:07;9.00;99.90
17529;DHT22;8882;53.192;8.184;2024-03-17T19:24:34;9.00;99.90
17529;DHT22;8882;53.192;8.184;2024-03-17T19:27:01;9.00;99.90
17529;DHT22;8882;53.192;8.184;2024-03-17T19:29:29;9.00;99.90
17529;DHT22;8882;53.192;8.184;2024-03-17T19:31:55;9.00;99.90
17529;DHT22;8882;53.192;8.184;2024-03-17T19:34:20;9.00;99.90
17529;DHT22;8882;53.192;8.184;2024-03-17T19:36:46;9.00;99.90
17529;DHT22;8882;53.192;8.184;2024-03-17T19:39:12;8.90;99.90
17529;DHT22;8882;53.192;8.184;2024-03-17T19:41:42;9.00;99.90
17529;DHT22;8882;53.192;8.184;2024-03-17T19:44:08;9.00;99.90
17529;DHT22;8882;53.192;8.184;2024-03-17T19:46:33;8.90;99.90
17529;DHT22;8882;53.192;8.184;2024-03-17T19:48:58;8.90;99.90
17529;DHT22;8882;53.192;8.184;2024-03-17T19:51:25;8.90;99.90
17529;DHT22;8882;53.192;8.184;2024-03-17T19:53:52;8.90;99.90
17529;DHT22;8882;53.192;8.184;2024-03-17T19:56:19;8.90;99.90
17529;DHT22;8882;53.192;8.184;2024-03-17T19:58:46;8.90;99.90
17529;DHT22;8882;53.192;8.184;2024-03-17T20:01:12;8.90;99.90
17529;DHT22;8882;53.192;8.184;2024-03-17T20:03:39;8.90;99.90
17529;DHT22;8882;53.192;8.184;2024-03-17T20:06:16;8.90;99.90
17529;DHT22;8882;53.192;8.184;2024-03-17T20:08:42;8.90;99.90
17529;DHT22;8882;53.192;8.184;2024-03-17T20:11:08;8.90;99.90
17529;DHT22;8882;53.192;8.184;2024-03-17T20:13:33;8.90;99.90
17529;DHT22;8882;53.192;8.184;2024-03-17T20:15:59;8.90;99.90
17529;DHT22;8882;53.192;8.184;2024-03-17T20:18:25;8.90;99.90
17529;DHT22;8882;53.192;8.184;2024-03-17T20:20:51;8.90;99.90
17529;DHT22;8882;53.192;8.184;2024-03-17T20:23:18;8.90;99.90
17529;DHT22;8882;53.192;8.184;2024-03-17T20:25:44;8.80;99.90
17529;DHT22;8882;53.192;8.184;2024-03-17T20:28:11;8.80;99.90
17529;DHT22;8882;53.192;8.184;2024-03-17T20:30:38;8.80;99.90
17529;DHT22;8882;53.192;8.184;2024-03-17T20:33:03;8.80;99.90
17529;DHT22;8882;53.192;8.184;2024-03-17T20:35:29;8.80;99.90
17529;DHT22;8882;53.192;8.184;2024-03-17T20:37:55;8.80;99.90
17529;DHT22;8882;53.192;8.184;2024-03-17T20:40:21;8.80;99.90
17529;DHT22;8882;53.192;8.184;2024-03-17T20:42:51;8.80;99.90
17529;DHT22;8882;53.192;8.184;2024-03-17T20:45:17;8.80;99.90
17529;DHT22;8882;53.192;8.184;2024-03-17T20:47:45;8.80;99.90
17529;DHT22;8882;53.192;8.184;2024-03-17T20:50:16;8.80;99.90
17529;DHT22;8882;53.192;8.184;2024-03-17T20:52:43;8.80;99.90
17529;DHT22;8882;53.192;8.184;2024-03-17T20:55:09;8.80;99.90
17529;DHT22;8882;53.192;8.184;2024-03-17T20:57:35;8.80;99.90
17529;DHT22;8882;53.192;8.184;2024-03-17T21:00:06;8.80;99.90
17529;DHT22;8882;53.192;8.184;2024-03-17T21:02:42;8.80;99.90
17529;DHT22;8882;53.192;8.184;2024-03-17T21:05:09;8.80;99.90
17529;DHT22;8882;53.192;8.184;2024-03-17T21:07:34;8.80;99.90
17529;DHT22;8882;53.192;8.184;2024-03-17T21:10:00;8.70;99.90
17529;DHT22;8882;53.192;8.184;2024-03-17T21:12:25;8.80;99.90
17529;DHT22;8882;53.192;8.184;2024-03-17T21:14:51;8.80;99.90
17529;DHT22;8882;53.192;8.184;2024-03-17T21:17:17;8.70;99.90
17529;DHT22;8882;53.192;8.184;2024-03-17T21:19:43;8.70;99.90
17529;DHT22;8882;53.192;8.184;2024-03-17T21:22:09;8.70;99.90
17529;DHT22;8882;53.192;8.184;2024-03-17T21:24:34;8.70;99.90
17529;DHT22;8882;53.192;8.184;2024-03-17T21:27:01;8.70;99.90
17529;DHT22;8882;53.192;8.184;2024-03-17T21:29:26;8.70;99.90
17529;DHT22;8882;53.192;8.184;2024-03-17T21:31:52;8.70;99.90
17529;DHT22;8882;53.192;8.184;2024-03-17T21:34:18;8.70;99.90
17529;DHT22;8882;53.192;8.184;2024-03-17T21:36:43;8.60;99.90
17529;DHT22;8882;53.192;8.184;2024-03-17T21:39:09;8.60;99.90
17529;DHT22;8882;53.192;8.184;2024-03-17T21:41:34;8.60;99.90
17529;DHT22;8882;53.192;8.184;2024-03-17T21:44:00;8.60;99.90
17529;DHT22;8882;53.192;8.184;2024-03-17T21:46:25;8.50;99.90
17529;DHT22;8882;53.192;8.184;2024-03-17T21:48:52;8.50;99.90